createdAt,value
2023-01-29T00:02:29.631Z,81.36
2023-01-29T00:05:10.020Z,81.36
2023-01-29T00:07:49.406Z,81.44
2023-01-29T00:10:21.271Z,81.41
2023-01-29T00:12:53.015Z,81.49
2023-01-29T00:15:24.705Z,81.41
2023-01-29T00:17:54.815Z,81.60
2023-01-29T00:20:26.485Z,81.43
2023-01-29T00:22:56.627Z,81.29
2023-01-29T00:25:28.513Z,81.27
2023-01-29T00:27:58.634Z,81.07
2023-01-29T00:30:30.738Z,80.94
2023-01-29T00:33:02.508Z,80.78
2023-01-29T00:35:32.988Z,80.72
2023-01-29T00:38:04.596Z,80.52
2023-01-29T00:40:55.382Z,80.63
2023-01-29T00:43:44.628Z,80.49
2023-01-29T00:46:16.400Z,80.45
2023-01-29T00:48:48.136Z,80.19
2023-01-29T00:51:18.320Z,80.04
2023-01-29T00:53:49.968Z,80.20
2023-01-29T00:56:20.673Z,80.13
2023-01-29T00:58:52.824Z,80.08
2023-01-29T01:01:39.173Z,80.06
2023-01-29T01:04:12.460Z,80.22
2023-01-29T01:06:44.924Z,79.94
2023-01-29T01:09:34.293Z,80.09
2023-01-29T01:12:06.951Z,80.03
2023-01-29T01:14:38.612Z,80.03
2023-01-29T01:17:08.763Z,79.57
2023-01-29T01:19:40.484Z,79.83
2023-01-29T01:22:11.072Z,79.64
2023-01-29T01:24:42.769Z,79.39
2023-01-29T01:27:13.029Z,79.63
2023-01-29T01:29:44.689Z,79.79
2023-01-29T01:32:15.860Z,79.61
2023-01-29T01:34:48.147Z,79.78
2023-01-29T01:37:18.359Z,79.49
2023-01-29T01:39:50.529Z,79.59
2023-01-29T01:42:22.143Z,79.40
2023-01-29T01:44:58.407Z,79.19
2023-01-29T01:47:35.882Z,78.80
2023-01-29T01:50:14.965Z,78.88
2023-01-29T01:52:52.740Z,78.90
2023-01-29T01:55:28.617Z,78.95
2023-01-29T01:58:07.493Z,78.65
2023-01-29T02:00:39.866Z,78.49
2023-01-29T02:03:30.978Z,78.36
2023-01-29T02:06:20.617Z,78.18
2023-01-29T02:09:14.104Z,78.05
2023-01-29T02:11:46.145Z,77.89
2023-01-29T02:14:18.419Z,78.03
2023-01-29T02:16:50.667Z,78.09
2023-01-29T02:19:24.277Z,78.19
2023-01-29T02:22:25.742Z,78.28
2023-01-29T02:25:19.955Z,78.13
2023-01-29T02:28:15.004Z,77.86
2023-01-29T02:30:54.292Z,77.94
2023-01-29T02:33:38.499Z,77.97
2023-01-29T02:36:20.564Z,77.90
2023-01-29T02:39:01.456Z,77.81
2023-01-29T02:41:39.741Z,77.66
2023-01-29T02:44:23.148Z,77.34
2023-01-29T02:47:02.224Z,77.31
2023-01-29T02:49:40.350Z,77.29
2023-01-29T02:52:17.549Z,77.42
2023-01-29T02:54:56.406Z,77.63
2023-01-29T02:57:30.632Z,77.67
2023-01-29T03:00:09.084Z,77.82
2023-01-29T03:02:48.645Z,77.39
2023-01-29T03:05:27.115Z,77.73
2023-01-29T03:08:03.896Z,77.44
2023-01-29T03:10:42.175Z,77.48
2023-01-29T03:13:19.518Z,77.04
2023-01-29T03:16:01.331Z,76.99
2023-01-29T03:19:06.619Z,76.87
2023-01-29T03:22:00.029Z,77.11
2023-01-29T03:25:00.364Z,76.97
2023-01-29T03:27:55.869Z,76.65
2023-01-29T03:30:50.057Z,76.66
2023-01-29T03:33:44.924Z,77.05
2023-01-29T03:36:22.454Z,77.06
2023-01-29T03:38:54.522Z,76.97
2023-01-29T03:41:34.175Z,76.72
2023-01-29T03:44:15.709Z,76.43
2023-01-29T03:46:57.110Z,76.32
2023-01-29T03:49:39.144Z,76.50
2023-01-29T03:52:20.721Z,76.30
2023-01-29T03:55:00.795Z,76.52
2023-01-29T03:57:39.818Z,76.51
2023-01-29T04:00:18.510Z,76.56
2023-01-29T04:03:15.625Z,76.29
2023-01-29T04:05:52.362Z,76.36
2023-01-29T04:08:31.500Z,76.40
2023-01-29T04:11:14.562Z,75.98
2023-01-29T04:13:48.796Z,75.94
2023-01-29T04:16:26.361Z,75.89
2023-01-29T04:19:07.778Z,76.15
2023-01-29T04:21:43.045Z,76.25
2023-01-29T04:24:15.965Z,76.20
2023-01-29T04:27:01.371Z,76.50
2023-01-29T04:29:48.255Z,76.24
2023-01-29T04:32:27.071Z,76.11
2023-01-29T04:35:11.202Z,76.17
2023-01-29T04:37:51.417Z,76.06
2023-01-29T04:40:34.699Z,76.08
2023-01-29T04:43:10.725Z,76.10
2023-01-29T04:45:54.642Z,75.89
2023-01-29T04:48:31.542Z,75.51
2023-01-29T04:51:10.507Z,75.40
2023-01-29T04:53:49.589Z,75.39
2023-01-29T04:56:26.599Z,75.47
2023-01-29T04:59:05.049Z,75.35
2023-01-29T05:01:39.336Z,75.20
2023-01-29T05:04:15.487Z,75.26
2023-01-29T05:06:47.782Z,74.88
2023-01-29T05:09:20.873Z,74.76
2023-01-29T05:11:53.245Z,75.12
2023-01-29T05:14:30.457Z,74.68
2023-01-29T05:17:06.005Z,74.60
2023-01-29T05:19:37.716Z,74.65
2023-01-29T05:22:10.931Z,74.47
2023-01-29T05:24:42.608Z,74.34
2023-01-29T05:27:34.063Z,74.53
2023-01-29T05:30:07.195Z,74.55
2023-01-29T05:32:39.730Z,74.49
2023-01-29T05:35:11.762Z,74.39
2023-01-29T05:37:43.406Z,74.39
2023-01-29T05:40:15.808Z,73.99
2023-01-29T05:42:47.591Z,74.35
2023-01-29T05:45:17.786Z,74.07
2023-01-29T05:47:49.669Z,74.24
2023-01-29T05:50:21.512Z,74.26
2023-01-29T05:52:58.687Z,74.48
2023-01-29T05:55:30.773Z,74.27
2023-01-29T05:58:04.758Z,74.07
2023-01-29T06:00:37.443Z,74.12
2023-01-29T06:03:07.641Z,74.07
2023-01-29T06:05:41.475Z,74.37
2023-01-29T06:08:13.290Z,74.34
2023-01-29T06:10:44.981Z,74.37
2023-01-29T06:13:15.105Z,74.35
2023-01-29T06:15:46.800Z,74.32
2023-01-29T06:18:16.951Z,74.16
2023-01-29T06:20:48.632Z,74.24
2023-01-29T06:23:18.775Z,74.14
2023-01-29T06:25:50.472Z,74.29
2023-01-29T06:28:20.636Z,74.22
2023-01-29T06:30:52.326Z,74.38
2023-01-29T06:33:22.449Z,74.20
2023-01-29T06:35:58.622Z,74.47
2023-01-29T06:38:30.934Z,74.36
2023-01-29T06:41:08.772Z,74.42
2023-01-29T06:43:41.036Z,74.59
2023-01-29T06:46:12.927Z,74.33
2023-01-29T06:48:44.588Z,74.47
2023-01-29T06:51:14.748Z,74.49
2023-01-29T06:53:46.907Z,74.78
2023-01-29T06:56:18.694Z,74.76
2023-01-29T06:58:48.857Z,74.90
2023-01-29T07:01:34.651Z,75.11
2023-01-29T07:04:07.401Z,74.98
2023-01-29T07:06:39.064Z,74.94
2023-01-29T07:09:09.152Z,74.90
2023-01-29T07:11:40.748Z,75.28
2023-01-29T07:14:10.865Z,75.47
2023-01-29T07:16:42.510Z,75.70
2023-01-29T07:19:12.709Z,75.25
2023-01-29T07:21:44.317Z,75.52
2023-01-29T07:24:14.543Z,75.79
2023-01-29T07:26:46.284Z,75.97
2023-01-29T07:29:16.417Z,75.90
2023-01-29T07:31:48.180Z,76.14
2023-01-29T07:34:20.029Z,76.24
2023-01-29T07:36:53.684Z,75.88
2023-01-29T07:39:25.441Z,76.01
2023-01-29T07:41:57.092Z,76.07
2023-01-29T07:44:28.879Z,76.19
2023-01-29T07:46:59.115Z,76.23
2023-01-29T07:49:32.614Z,76.17
2023-01-29T07:52:04.394Z,76.25
2023-01-29T07:54:36.079Z,76.33
2023-01-29T07:57:06.287Z,76.57
2023-01-29T07:59:37.943Z,76.69
2023-01-29T08:02:09.713Z,76.83
2023-01-29T08:04:41.393Z,77.02
2023-01-29T08:07:11.555Z,77.01
2023-01-29T08:09:43.184Z,76.83
2023-01-29T08:12:13.282Z,76.80
2023-01-29T08:14:45.735Z,77.01
2023-01-29T08:17:17.586Z,76.72
2023-01-29T08:19:49.218Z,76.66
2023-01-29T08:22:19.314Z,76.89
2023-01-29T08:24:54.359Z,76.93
2023-01-29T08:27:31.839Z,76.72
2023-01-29T08:30:01.961Z,76.63
2023-01-29T08:32:34.038Z,76.55
2023-01-29T08:35:06.569Z,76.44
2023-01-29T08:37:38.203Z,76.64
2023-01-29T08:40:13.330Z,76.40
2023-01-29T08:42:44.982Z,76.46
2023-01-29T08:45:15.138Z,76.27
2023-01-29T08:47:50.878Z,76.38
2023-01-29T08:50:22.567Z,76.34
2023-01-29T08:52:52.719Z,76.11
2023-01-29T08:55:24.857Z,76.20
2023-01-29T08:57:57.326Z,76.27
2023-01-29T09:00:29.024Z,76.22
2023-01-29T09:03:00.911Z,76.04
2023-01-29T09:05:32.564Z,75.78
2023-01-29T09:08:02.829Z,75.97
2023-01-29T09:10:35.075Z,75.55
2023-01-29T09:13:09.985Z,74.99
2023-01-29T09:15:42.171Z,74.60
2023-01-29T09:18:14.692Z,74.37
2023-01-29T09:20:46.791Z,74.43
2023-01-29T09:23:19.130Z,74.12
2023-01-29T09:25:51.809Z,73.88
2023-01-29T09:28:25.090Z,73.88
2023-01-29T09:30:57.653Z,73.84
2023-01-29T09:33:31.061Z,73.77
2023-01-29T09:36:06.116Z,73.67
2023-01-29T09:38:38.475Z,73.58
2023-01-29T09:41:24.901Z,73.31
2023-01-29T09:44:01.430Z,73.33
2023-01-29T09:46:45.923Z,73.16
2023-01-29T09:49:25.740Z,72.92
2023-01-29T09:52:08.407Z,73.12
2023-01-29T09:54:52.339Z,73.06
2023-01-29T09:57:30.226Z,72.65
2023-01-29T10:00:02.184Z,72.84
2023-01-29T10:02:56.298Z,72.60
2023-01-29T10:05:46.349Z,72.51
2023-01-29T10:08:40.551Z,71.64
2023-01-29T10:11:26.294Z,72.09
2023-01-29T10:14:17.991Z,72.16
2023-01-29T10:17:05.941Z,71.75
2023-01-29T10:19:57.164Z,71.72
2023-01-29T10:22:46.203Z,71.30
2023-01-29T10:25:20.853Z,71.35
2023-01-29T10:27:54.409Z,70.96
2023-01-29T10:30:33.794Z,70.87
2023-01-29T10:33:13.184Z,70.66
2023-01-29T10:35:50.058Z,70.34
2023-01-29T10:38:40.047Z,70.46
2023-01-29T10:41:31.697Z,70.29
2023-01-29T10:44:18.445Z,70.33
2023-01-29T10:47:03.689Z,70.47
2023-01-29T10:49:51.657Z,70.59
2023-01-29T10:52:36.330Z,70.17
2023-01-29T10:55:22.167Z,69.92
2023-01-29T10:58:07.417Z,70.29
2023-01-29T11:00:41.534Z,70.08
2023-01-29T11:06:20.018Z,69.69
2023-01-29T11:08:57.112Z,69.73
2023-01-29T11:11:37.026Z,69.50
2023-01-29T11:14:14.936Z,69.53
2023-01-29T11:16:49.031Z,69.48
2023-01-29T11:19:36.876Z,68.27
2023-01-29T11:22:16.229Z,68.70
2023-01-29T11:24:48.697Z,68.72
2023-01-29T11:27:26.503Z,68.74
2023-01-29T11:29:58.838Z,68.31
2023-01-29T11:32:35.032Z,68.04
2023-01-29T11:35:21.620Z,68.40
2023-01-29T11:37:53.535Z,68.72
2023-01-29T11:40:41.302Z,68.78
2023-01-29T11:43:32.539Z,68.61
2023-01-29T11:46:07.217Z,68.16
2023-01-29T11:48:47.953Z,68.19
2023-01-29T11:51:28.180Z,67.83
2023-01-29T11:54:02.937Z,67.77
2023-01-29T11:56:41.045Z,67.73
2023-01-29T11:59:26.176Z,67.50
2023-01-29T12:02:04.766Z,67.37
2023-01-29T12:04:40.311Z,67.09
2023-01-29T12:07:17.540Z,66.95
2023-01-29T12:09:55.452Z,67.28
2023-01-29T12:12:42.362Z,67.16
2023-01-29T12:15:24.400Z,66.95
2023-01-29T12:18:06.613Z,66.46
2023-01-29T12:20:42.576Z,66.18
2023-01-29T12:23:32.234Z,66.92
2023-01-29T12:26:10.588Z,66.75
2023-01-29T12:28:50.751Z,66.97
2023-01-29T12:31:37.736Z,66.95
2023-01-29T12:34:21.376Z,67.15
2023-01-29T12:36:57.651Z,67.29
2023-01-29T12:39:29.857Z,66.90
2023-01-29T12:42:05.607Z,66.72
2023-01-29T12:44:42.610Z,66.73
2023-01-29T12:47:20.722Z,66.79
2023-01-29T12:49:56.992Z,67.07
2023-01-29T12:52:40.849Z,66.52
2023-01-29T12:55:19.300Z,66.63
2023-01-29T12:57:55.948Z,66.56
2023-01-29T13:00:30.508Z,66.52
2023-01-29T13:03:09.249Z,66.93
2023-01-29T13:05:47.363Z,67.05
2023-01-29T13:08:23.159Z,67.05
2023-01-29T13:10:58.935Z,66.80
2023-01-29T13:13:37.323Z,66.43
2023-01-29T13:16:22.230Z,66.63
2023-01-29T13:18:59.139Z,66.62
2023-01-29T13:21:36.817Z,66.58
2023-01-29T13:24:15.524Z,66.49
2023-01-29T13:26:53.792Z,66.21
2023-01-29T13:29:32.073Z,66.32
2023-01-29T13:32:06.473Z,66.40
2023-01-29T13:34:46.130Z,66.71
2023-01-29T13:37:28.092Z,66.89
2023-01-29T13:40:02.446Z,66.89
2023-01-29T13:42:45.961Z,66.66
2023-01-29T13:45:24.507Z,66.30
2023-01-29T13:48:09.354Z,66.11
2023-01-29T13:50:43.990Z,66.27
2023-01-29T13:53:25.392Z,66.39
2023-01-29T13:56:17.178Z,66.59
2023-01-29T13:58:57.273Z,66.79
2023-01-29T14:02:04.500Z,66.92
2023-01-29T14:04:36.289Z,66.63
2023-01-29T14:07:26.429Z,66.82
2023-01-29T14:10:16.619Z,66.83
2023-01-29T14:12:55.883Z,66.87
2023-01-29T14:15:33.539Z,66.54
2023-01-29T14:18:20.680Z,66.66
2023-01-29T14:21:04.695Z,66.83
2023-01-29T14:23:46.681Z,66.85
2023-01-29T14:26:45.496Z,67.17
2023-01-29T14:29:34.173Z,67.05
2023-01-29T14:32:19.271Z,67.16
2023-01-29T14:34:56.652Z,66.91
2023-01-29T14:37:34.301Z,66.92
2023-01-29T14:40:21.757Z,67.11
2023-01-29T14:43:03.219Z,66.97
2023-01-29T14:45:36.979Z,67.03
2023-01-29T14:48:37.778Z,67.08
2023-01-29T14:51:12.150Z,67.13
2023-01-29T14:53:59.531Z,67.28
2023-01-29T14:56:36.215Z,67.43
2023-01-29T14:59:17.984Z,67.33
2023-01-29T15:01:52.331Z,67.60
2023-01-29T15:04:27.509Z,67.85
2023-01-29T15:07:05.289Z,67.84
2023-01-29T15:09:43.592Z,68.01
2023-01-29T15:12:25.619Z,67.91
2023-01-29T15:15:07.075Z,68.07
2023-01-29T15:17:49.898Z,67.92
2023-01-29T15:20:32.337Z,68.19
2023-01-29T15:23:06.127Z,68.28
2023-01-29T15:25:48.950Z,68.31
2023-01-29T15:28:21.024Z,68.43
2023-01-29T15:30:56.291Z,68.40
2023-01-29T15:33:29.307Z,68.48
2023-01-29T15:36:09.507Z,68.67
2023-01-29T15:38:41.419Z,68.75
2023-01-29T15:41:18.360Z,68.62
2023-01-29T15:43:51.823Z,68.98
2023-01-29T15:46:28.808Z,69.08
2023-01-29T15:49:07.198Z,69.23
2023-01-29T15:51:39.851Z,69.16
2023-01-29T15:54:15.976Z,69.12
2023-01-29T15:56:52.161Z,69.14
2023-01-29T15:59:26.909Z,69.13
2023-01-29T16:01:58.719Z,69.28
2023-01-29T16:04:32.107Z,69.23
2023-01-29T16:07:04.309Z,69.10
2023-01-29T16:09:36.165Z,69.13
2023-01-29T16:12:09.176Z,69.16
2023-01-29T16:14:42.394Z,69.25
2023-01-29T16:17:26.091Z,69.21
2023-01-29T16:20:02.186Z,69.19
2023-01-29T16:22:36.338Z,69.14
2023-01-29T16:25:13.712Z,69.00
2023-01-29T16:27:46.141Z,69.15
2023-01-29T16:30:19.905Z,69.19
2023-01-29T16:32:51.987Z,69.28
2023-01-29T16:35:23.786Z,69.35
2023-01-29T16:38:02.091Z,69.27
2023-01-29T16:40:35.639Z,69.21
2023-01-29T16:43:47.565Z,69.38
2023-01-29T16:46:37.114Z,69.51
2023-01-29T16:49:35.931Z,69.74
2023-01-29T16:52:20.571Z,69.47
2023-01-29T16:54:52.497Z,69.46
2023-01-29T16:57:26.637Z,69.59
2023-01-29T17:00:01.569Z,69.53
2023-01-29T17:02:38.041Z,69.30
2023-01-29T17:05:21.487Z,69.50
2023-01-29T17:07:56.451Z,69.66
2023-01-29T17:10:30.148Z,69.44
2023-01-29T17:13:06.360Z,69.66
2023-01-29T17:15:47.068Z,69.53
2023-01-29T17:18:22.007Z,69.67
2023-01-29T17:20:54.552Z,69.71
2023-01-29T17:23:26.482Z,69.78
2023-01-29T17:25:58.506Z,69.74
2023-01-29T17:28:39.484Z,70.00
2023-01-29T17:31:12.032Z,69.77
2023-01-29T17:33:45.246Z,69.73
2023-01-29T17:36:19.444Z,69.76
2023-01-29T17:38:51.319Z,69.94
2023-01-29T17:41:28.327Z,70.03
2023-01-29T17:44:00.755Z,70.01
2023-01-29T17:46:33.386Z,70.10
2023-01-29T17:49:07.435Z,70.27
2023-01-29T17:51:39.523Z,70.35
2023-01-29T17:54:11.547Z,70.47
2023-01-29T17:56:44.026Z,70.66
2023-01-29T17:59:18.490Z,70.63
2023-01-29T18:01:51.212Z,70.68
2023-01-29T18:04:23.333Z,70.73
2023-01-29T18:06:56.878Z,70.90
2023-01-29T18:09:29.149Z,71.01
2023-01-29T18:12:04.096Z,70.98
2023-01-29T18:14:36.628Z,71.05
2023-01-29T18:17:08.639Z,71.16
2023-01-29T18:19:40.721Z,71.26
2023-01-29T18:22:14.140Z,71.40
2023-01-29T18:24:49.086Z,71.60
2023-01-29T18:27:21.118Z,71.85
2023-01-29T18:29:53.782Z,72.04
2023-01-29T18:32:26.261Z,72.41
2023-01-29T18:34:58.621Z,72.66
2023-01-29T18:37:31.060Z,72.84
2023-01-29T18:40:03.703Z,72.78
2023-01-29T18:42:36.431Z,72.84
2023-01-29T18:45:13.261Z,73.06
2023-01-29T18:47:46.190Z,73.08
2023-01-29T18:50:23.537Z,72.95
2023-01-29T18:52:56.795Z,73.30
2023-01-29T18:55:29.030Z,73.28
2023-01-29T18:58:26.938Z,73.47
2023-01-29T19:00:55.820Z,73.49
2023-01-29T19:03:27.902Z,73.64
2023-01-29T19:06:07.315Z,73.46
2023-01-29T19:08:40.519Z,73.58
2023-01-29T19:11:15.185Z,73.69
2023-01-29T19:13:47.950Z,73.75
2023-01-29T19:16:20.303Z,73.97
2023-01-29T19:18:56.407Z,74.00
2023-01-29T19:21:30.257Z,73.97
2023-01-29T19:24:02.364Z,74.16
2023-01-29T19:26:34.599Z,74.21
2023-01-29T19:29:09.296Z,74.19
2023-01-29T19:31:41.526Z,74.39
2023-01-29T19:34:13.715Z,74.50
2023-01-29T19:36:45.964Z,74.46
2023-01-29T19:39:18.196Z,74.65
2023-01-29T19:41:50.109Z,74.91
2023-01-29T19:44:22.693Z,75.08
2023-01-29T19:46:55.221Z,75.31
2023-01-29T19:49:29.831Z,75.41
2023-01-29T19:52:02.469Z,75.57
2023-01-29T19:54:35.119Z,75.60
2023-01-29T19:57:10.701Z,75.87
2023-01-29T19:59:45.809Z,75.97
2023-01-29T20:02:18.078Z,76.24
2023-01-29T20:04:50.412Z,76.45
2023-01-29T20:07:22.846Z,76.60
2023-01-29T20:09:56.068Z,76.77
2023-01-29T20:12:28.069Z,76.94
2023-01-29T20:14:59.975Z,77.07
2023-01-29T20:17:32.091Z,76.99
2023-01-29T20:20:03.936Z,77.28
2023-01-29T20:22:35.873Z,77.22
2023-01-29T20:25:10.288Z,77.29
2023-01-29T20:27:42.211Z,77.44
2023-01-29T20:30:15.503Z,77.52
2023-01-29T20:32:47.590Z,77.79
2023-01-29T20:35:20.130Z,77.71
2023-01-29T20:37:51.866Z,77.72
2023-01-29T20:40:22.117Z,78.03
2023-01-29T20:42:53.868Z,78.14
2023-01-29T20:45:25.837Z,78.14
2023-01-29T20:47:58.428Z,78.11
2023-01-29T20:50:30.274Z,78.17
2023-01-29T20:53:02.614Z,78.29
2023-01-29T20:55:34.974Z,78.35
2023-01-29T20:58:07.137Z,78.30
2023-01-29T21:00:44.593Z,78.40
2023-01-29T21:03:16.349Z,78.45
2023-01-29T21:05:46.623Z,78.61
2023-01-29T21:08:18.380Z,78.90
2023-01-29T21:10:52.954Z,78.90
2023-01-29T21:13:24.765Z,78.87
2023-01-29T21:15:56.530Z,78.94
2023-01-29T21:18:26.803Z,78.95
2023-01-29T21:20:58.920Z,79.05
2023-01-29T21:23:30.869Z,78.84
2023-01-29T21:26:06.011Z,78.88
2023-01-29T21:28:37.822Z,78.71
2023-01-29T21:31:11.360Z,78.90
2023-01-29T21:33:43.143Z,78.77
2023-01-29T21:36:14.990Z,78.85
2023-01-29T21:38:46.760Z,78.82
2023-01-29T21:41:18.642Z,78.93
2023-01-29T21:43:48.854Z,79.00
2023-01-29T21:46:20.794Z,79.12
2023-01-29T21:48:53.907Z,79.23
2023-01-29T21:51:25.681Z,79.30
2023-01-29T21:53:57.332Z,79.27
2023-01-29T21:56:27.554Z,79.42
2023-01-29T21:59:01.015Z,79.57
2023-01-29T22:01:37.337Z,79.54
2023-01-29T22:04:11.543Z,79.48
2023-01-29T22:06:43.260Z,79.76
2023-01-29T22:09:13.650Z,79.75
2023-01-29T22:11:45.410Z,79.95
2023-01-29T22:14:18.194Z,79.84
2023-01-29T22:16:49.871Z,79.91
2023-01-29T22:19:20.031Z,79.87
2023-01-29T22:21:52.375Z,79.88
2023-01-29T22:24:24.524Z,79.76
2023-01-29T22:26:56.196Z,79.74
2023-01-29T22:29:26.373Z,79.87
2023-01-29T22:31:58.017Z,79.94
2023-01-29T22:34:28.216Z,79.86
2023-01-29T22:36:59.895Z,80.03
2023-01-29T22:39:30.043Z,79.87
2023-01-29T22:42:01.716Z,79.89
2023-01-29T22:44:31.780Z,79.79
2023-01-29T22:47:03.611Z,79.82
2023-01-29T22:49:35.322Z,79.79
2023-01-29T22:52:11.394Z,79.67
2023-01-29T22:54:44.474Z,79.85
2023-01-29T22:57:17.045Z,79.58
2023-01-29T22:59:48.651Z,79.45
2023-01-29T23:02:18.827Z,79.33
2023-01-29T23:04:51.162Z,79.37
2023-01-29T23:07:22.816Z,79.17
2023-01-29T23:09:52.954Z,79.08
2023-01-29T23:12:24.579Z,79.22
2023-01-29T23:14:54.688Z,79.26
2023-01-29T23:17:26.280Z,79.21
2023-01-29T23:19:57.891Z,79.11
2023-01-29T23:22:28.001Z,78.90
2023-01-29T23:25:00.294Z,78.82
2023-01-29T23:27:31.981Z,78.85
2023-01-29T23:30:02.135Z,78.84
2023-01-29T23:32:34.169Z,78.95
2023-01-29T23:35:06.250Z,78.73
2023-01-29T23:37:38.002Z,78.79
2023-01-29T23:40:09.503Z,78.78
2023-01-29T23:42:41.123Z,78.82
2023-01-29T23:45:12.173Z,78.71
2023-01-29T23:47:43.803Z,78.74
2023-01-29T23:50:14.138Z,78.57
2023-01-29T23:52:45.765Z,78.72
2023-01-29T23:55:16.045Z,78.57
2023-01-29T23:57:47.651Z,78.50
